Time;durP1;ratioP1;P1;durP2;ratioP2;P2;SDS_P1;SDS_P2;PMS_P1;PMS_P2;Temp;Humidity;BMP_temperature;BMP_pressure;BME280_temperature;BME280_humidity;BME280_pressure;Samples;Min_cycle;Max_cycle;Signal;HPM_P1;HPM_P2
2023/09/07 00:01:33;;;;;;;4.70;2.65;;;;;;;;;;5057101;28;20083;-74
2023/09/07 00:03:59;;;;;;;9.25;2.97;;;;;;;;;;5102874;28;20079;-74
2023/09/07 00:06:26;;;;;;;7.60;3.00;;;;;;;;;;5073935;28;20046;-75
2023/09/07 00:08:52;;;;;;;5.05;2.80;;;;;;;;;;5108534;28;20539;-75
2023/09/07 00:11:19;;;;;;;7.93;2.70;;;;;;;;;;5090409;28;20059;-76
2023/09/07 00:13:45;;;;;;;7.50;2.75;;;;;;;;;;5072439;28;20055;-75
2023/09/07 00:16:11;;;;;;;8.93;3.05;;;;;;;;;;5080921;28;20039;-75
2023/09/07 00:18:37;;;;;;;9.00;3.35;;;;;;;;;;5074269;28;20040;-75
2023/09/07 00:21:03;;;;;;;5.53;2.95;;;;;;;;;;5073994;28;20040;-75
2023/09/07 00:23:30;;;;;;;6.07;2.92;;;;;;;;;;5093342;28;20173;-75
2023/09/07 00:25:56;;;;;;;5.15;3.05;;;;;;;;;;5110609;28;20126;-75
2023/09/07 00:28:22;;;;;;;9.82;3.00;;;;;;;;;;5065376;28;20520;-75
2023/09/07 00:30:48;;;;;;;6.47;2.90;;;;;;;;;;5073316;28;20501;-75
2023/09/07 00:33:15;;;;;;;8.35;3.35;;;;;;;;;;5094576;28;20499;-75
2023/09/07 00:35:41;;;;;;;8.88;3.20;;;;;;;;;;5076835;28;20453;-75
2023/09/07 00:38:07;;;;;;;5.95;2.83;;;;;;;;;;5093498;28;20366;-77
2023/09/07 00:40:33;;;;;;;5.90;2.97;;;;;;;;;;5059749;28;20044;-75
2023/09/07 00:43:00;;;;;;;5.55;3.05;;;;;;;;;;5056401;28;20126;-75
2023/09/07 00:45:26;;;;;;;4.93;3.10;;;;;;;;;;5073149;28;20040;-75
2023/09/07 00:47:52;;;;;;;6.05;3.40;;;;;;;;;;5057218;28;20039;-75
2023/09/07 00:50:18;;;;;;;6.55;3.20;;;;;;;;;;5074472;28;20044;-75
2023/09/07 00:52:45;;;;;;;6.80;3.50;;;;;;;;;;5074022;28;20097;-75
2023/09/07 00:55:11;;;;;;;5.80;3.30;;;;;;;;;;5073225;28;20083;-75
2023/09/07 00:57:39;;;;;;;7.55;3.22;;;;;;;;;;5073510;28;20524;-75
2023/09/07 01:00:08;;;;;;;6.78;3.10;;;;;;;;;;5093037;28;20048;-75
2023/09/07 01:02:35;;;;;;;10.23;3.50;;;;;;;;;;5060859;28;20087;-75
2023/09/07 01:05:05;;;;;;;7.32;3.47;;;;;;;;;;5129126;27;20400;-75
2023/09/07 01:07:38;;;;;;;7.20;3.40;;;;;;;;;;5080145;28;20056;-75
2023/09/07 01:10:04;;;;;;;9.30;3.42;;;;;;;;;;5086093;28;20044;-74
2023/09/07 01:12:30;;;;;;;6.45;3.40;;;;;;;;;;5092600;28;20114;-75
2023/09/07 01:14:58;;;;;;;8.20;3.83;;;;;;;;;;5093615;28;20071;-74
2023/09/07 01:17:24;;;;;;;8.30;3.60;;;;;;;;;;5076928;28;20052;-75
2023/09/07 01:19:50;;;;;;;7.80;3.53;;;;;;;;;;5077561;28;20048;-75
2023/09/07 01:22:17;;;;;;;4.70;3.03;;;;;;;;;;5083107;28;20042;-75
2023/09/07 01:24:44;;;;;;;5.40;2.90;;;;;;;;;;5065676;28;20044;-75
2023/09/07 01:27:10;;;;;;;9.82;3.30;;;;;;;;;;5076246;28;20047;-77
2023/09/07 01:29:37;;;;;;;7.70;3.47;;;;;;;;;;5092574;28;20073;-75
2023/09/07 01:32:03;;;;;;;4.05;2.50;;;;;;;;;;5093781;28;20044;-75
2023/09/07 01:34:29;;;;;;;5.10;2.90;;;;;;;;;;5092649;28;20044;-75
2023/09/07 01:36:55;;;;;;;6.03;3.30;;;;;;;;;;5076861;28;20044;-75
2023/09/07 01:39:22;;;;;;;5.15;3.00;;;;;;;;;;5075999;28;20461;-76
2023/09/07 01:41:48;;;;;;;6.90;3.25;;;;;;;;;;5094010;28;20052;-75
2023/09/07 01:44:14;;;;;;;;;;;;;;;;;;5078511;28;20150;-76
2023/09/07 01:46:40;;;;;;;6.97;3.13;;;;;;;;;;5104925;28;20408;-75
2023/09/07 01:49:06;;;;;;;;;;;;;;;;;;5113912;28;20055;-75
2023/09/07 01:51:32;;;;;;;7.60;3.22;;;;;;;;;;5093150;28;20266;-75
2023/09/07 01:53:58;;;;;;;8.07;3.42;;;;;;;;;;5092939;28;20047;-75
2023/09/07 01:56:24;;;;;;;;;;;;;;;;;;5092807;28;20051;-75
2023/09/07 01:58:50;;;;;;;7.35;3.05;;;;;;;;;;5092457;28;19920;-75
2023/09/07 02:01:23;;;;;;;9.82;3.38;;;;;;;;;;5078044;28;20069;-76
2023/09/07 02:03:49;;;;;;;3.88;2.55;;;;;;;;;;5059308;28;20044;-75
2023/09/07 02:06:15;;;;;;;8.80;3.47;;;;;;;;;;5076137;28;20458;-77
2023/09/07 02:08:41;;;;;;;4.45;2.67;;;;;;;;;;5075625;28;20044;-75
2023/09/07 02:11:07;;;;;;;6.60;3.22;;;;;;;;;;5093968;28;20132;-75
2023/09/07 02:13:33;;;;;;;;;;;;;;;;;;5094507;28;20073;-75
2023/09/07 02:16:03;;;;;;;5.20;3.00;;;;;;;;;;5096428;28;19920;-75
2023/09/07 02:18:29;;;;;;;3.72;2.63;;;;;;;;;;5066996;28;20048;-75
2023/09/07 02:20:55;;;;;;;;;;;;;;;;;;5059471;28;20394;-75
2023/09/07 02:23:21;;;;;;;4.35;2.80;;;;;;;;;;5094038;28;19919;-75
2023/09/07 02:25:47;;;;;;;3.45;2.65;;;;;;;;;;5076055;28;20098;-74
2023/09/07 02:28:13;;;;;;;;;;;;;;;;;;5075293;28;20447;-75
2023/09/07 02:30:39;;;;;;;4.70;3.00;;;;;;;;;;5086310;28;19923;-75
2023/09/07 02:33:05;;;;;;;4.22;3.05;;;;;;;;;;5091900;28;20043;-75
2023/09/07 02:35:31;;;;;;;;;;;;;;;;;;5074751;28;20040;-75
2023/09/07 02:37:57;;;;;;;4.88;2.72;;;;;;;;;;5091331;28;19934;-75
2023/09/07 02:40:23;;;;;;;5.35;2.40;;;;;;;;;;5095557;28;20040;-75
2023/09/07 02:42:50;;;;;;;7.63;3.20;;;;;;;;;;5095120;28;20063;-75
2023/09/07 02:45:15;;;;;;;;;;;;;;;;;;5095670;28;20100;-75
2023/09/07 02:47:41;;;;;;;6.18;3.40;;;;;;;;;;5094342;28;20246;-74
2023/09/07 02:50:08;;;;;;;12.43;3.42;;;;;;;;;;5086902;28;20044;-75
2023/09/07 02:52:34;;;;;;;7.40;3.35;;;;;;;;;;5058832;28;20075;-75
2023/09/07 02:55:00;;;;;;;4.70;3.30;;;;;;;;;;5058704;28;20131;-75
2023/09/07 02:57:27;;;;;;;3.78;2.97;;;;;;;;;;5074209;28;20051;-74
2023/09/07 02:59:53;;;;;;;5.30;3.30;;;;;;;;;;5074675;28;20040;-75
2023/09/07 03:02:19;;;;;;;6.10;3.47;;;;;;;;;;5076296;28;20039;-76
2023/09/07 03:04:45;;;;;;;;;;;;;;;;;;5073947;28;20118;-75
2023/09/07 03:07:11;;;;;;;5.93;3.63;;;;;;;;;;5109346;28;19957;-75
2023/09/07 03:09:37;;;;;;;5.75;3.10;;;;;;;;;;5089890;28;20493;-75
2023/09/07 03:12:04;;;;;;;6.63;3.47;;;;;;;;;;5074681;28;20040;-75
2023/09/07 03:14:30;;;;;;;4.93;3.28;;;;;;;;;;5056476;28;20132;-75
2023/09/07 03:16:56;;;;;;;5.28;3.45;;;;;;;;;;5092091;28;20085;-74
2023/09/07 03:19:22;;;;;;;5.57;3.45;;;;;;;;;;5074058;28;20066;-77
2023/09/07 03:21:48;;;;;;;;;;;;;;;;;;5106021;28;20039;-75
2023/09/07 03:24:15;;;;;;;5.07;3.45;;;;;;;;;;5094481;28;19937;-75
2023/09/07 03:26:41;;;;;;;4.70;3.30;;;;;;;;;;5099822;28;20731;-76
2023/09/07 03:29:07;;;;;;;;;;;;;;;;;;5074295;28;20401;-75
2023/09/07 03:31:33;;;;;;;7.00;3.50;;;;;;;;;;5118687;27;19920;-75
2023/09/07 03:33:59;;;;;;;7.95;3.75;;;;;;;;;;5094358;28;20044;-75
2023/09/07 03:36:25;;;;;;;;;;;;;;;;;;5094644;28;20048;-76
2023/09/07 03:38:51;;;;;;;7.93;3.67;;;;;;;;;;5111907;28;19926;-75
2023/09/07 03:41:17;;;;;;;;;;;;;;;;;;5095183;28;20055;-75
2023/09/07 03:43:44;;;;;;;4.97;2.95;;;;;;;;;;5109461;28;19927;-75
2023/09/07 03:46:10;;;;;;;12.30;4.18;;;;;;;;;;5103956;28;20431;-75
2023/09/07 03:48:36;;;;;;;;;;;;;;;;;;5078011;28;20050;-75
2023/09/07 03:51:02;;;;;;;;;;;;;;;;;;5094859;28;20351;-75
2023/09/07 03:53:28;;;;;;;;;;;;;;;;;;5090518;28;19920;-76
2023/09/07 03:55:54;;;;;;;;;;;;;;;;;;5075495;28;19919;-75
2023/09/07 03:58:20;;;;;;;;;;;;;;;;;;5090808;28;19924;-75
2023/09/07 04:00:46;;;;;;;;;;;;;;;;;;5091225;28;19927;-75
2023/09/07 04:03:11;;;;;;;;;;;;;;;;;;5091568;28;19920;-75
2023/09/07 04:05:38;;;;;;;;;;;;;;;;;;5092551;28;19927;-75
2023/09/07 04:08:04;;;;;;;;;;;;;;;;;;5094635;28;19981;-75
2023/09/07 04:10:30;;;;;;;;;;;;;;;;;;5111492;28;19924;-75
2023/09/07 04:12:56;;;;;;;;;;;;;;;;;;5090676;28;19924;-75
2023/09/07 04:15:22;;;;;;;;;;;;;;;;;;5091918;28;20010;-75
2023/09/07 04:17:48;;;;;;;;;;;;;;;;;;5091184;28;19974;-75
2023/09/07 04:20:14;;;;;;;;;;;;;;;;;;5092191;28;19971;-75
2023/09/07 04:22:43;;;;;;;;;;;;;;;;;;5094175;28;19920;-75
2023/09/07 04:25:09;;;;;;;;;;;;;;;;;;5092260;28;20010;-75
2023/09/07 04:27:35;;;;;;;;;;;;;;;;;;5086185;28;20009;-76
2023/09/07 04:30:01;;;;;;;;;;;;;;;;;;5107612;28;19926;-76
2023/09/07 04:32:27;;;;;;;;;;;;;;;;;;5091156;28;19920;-77
2023/09/07 04:34:53;;;;;;;;;;;;;;;;;;5086695;28;19972;-75
2023/09/07 04:37:19;;;;;;;;;;;;;;;;;;5098565;28;19926;-75
2023/09/07 04:39:45;;;;;;;;;;;;;;;;;;5098210;28;19919;-76
2023/09/07 04:42:11;;;;;;;;;;;;;;;;;;5101753;28;19927;-76
2023/09/07 04:44:37;;;;;;;;;;;;;;;;;;5080096;28;19919;-76
2023/09/07 04:47:03;;;;;;;;;;;;;;;;;;5115499;28;19919;-77
2023/09/07 04:49:29;;;;;;;;;;;;;;;;;;5084471;28;19962;-75
2023/09/07 04:51:55;;;;;;;;;;;;;;;;;;5092566;28;19923;-76
2023/09/07 04:54:20;;;;;;;;;;;;;;;;;;5103163;28;19924;-75
2023/09/07 04:56:46;;;;;;;;;;;;;;;;;;5093755;28;19969;-75
2023/09/07 04:59:13;;;;;;;;;;;;;;;;;;5093793;28;19920;-75
2023/09/07 05:01:39;;;;;;;;;;;;;;;;;;5118436;27;19942;-76
2023/09/07 05:04:05;;;;;;;;;;;;;;;;;;5081657;28;19928;-75
2023/09/07 05:06:31;;;;;;;;;;;;;;;;;;5106528;28;19930;-77
2023/09/07 05:08:56;;;;;;;;;;;;;;;;;;5090015;28;20353;-75
2023/09/07 05:11:22;;;;;;;;;;;;;;;;;;5083510;28;19923;-76
2023/09/07 05:13:48;;;;;;;;;;;;;;;;;;5095966;28;19920;-75
2023/09/07 05:16:14;;;;;;;;;;;;;;;;;;5098214;28;19946;-75
2023/09/07 05:18:40;;;;;;;;;;;;;;;;;;5097606;28;19924;-76
2023/09/07 05:21:06;;;;;;;;;;;;;;;;;;5084964;28;19920;-77
2023/09/07 05:23:32;;;;;;;;;;;;;;;;;;5079294;28;19941;-77
2023/09/07 05:25:58;;;;;;;;;;;;;;;;;;5094365;28;20415;-75
2023/09/07 05:28:24;;;;;;;;;;;;;;;;;;5130203;27;19927;-76
2023/09/07 05:30:50;;;;;;;;;;;;;;;;;;5096653;28;20026;-75
2023/09/07 05:33:16;;;;;;;;;;;;;;;;;;5098442;28;19955;-76
2023/09/07 05:35:42;;;;;;;;;;;;;;;;;;5096501;28;19923;-75
2023/09/07 05:38:08;;;;;;;;;;;;;;;;;;5097478;28;19920;-78
2023/09/07 05:40:34;;;;;;;;;;;;;;;;;;5114373;28;19924;-77
2023/09/07 05:43:00;;;;;;;;;;;;;;;;;;5090884;28;19924;-76
2023/09/07 05:45:26;;;;;;;;;;;;;;;;;;5079382;28;19927;-76
2023/09/07 05:47:52;;;;;;;;;;;;;;;;;;5093494;28;19965;-75
2023/09/07 05:50:18;;;;;;;;;;;;;;;;;;5093680;27;19978;-75
2023/09/07 05:52:44;;;;;;;;;;;;;;;;;;5109853;28;19978;-76
2023/09/07 05:55:10;;;;;;;;;;;;;;;;;;5093828;28;19920;-75
2023/09/07 05:57:36;;;;;;;;;;;;;;;;;;5093132;28;20009;-77
2023/09/07 06:00:02;;;;;;;;;;;;;;;;;;5077709;28;19963;-75
2023/09/07 06:02:28;;;;;;;;;;;;;;;;;;5077197;28;19920;-75
2023/09/07 06:04:54;;;;;;;;;;;;;;;;;;5093435;28;19923;-77
2023/09/07 06:07:20;;;;;;;;;;;;;;;;;;5094182;28;20349;-77
2023/09/07 06:09:46;;;;;;;;;;;;;;;;;;5092805;28;20011;-77
2023/09/07 06:12:12;;;;;;;;;;;;;;;;;;5093932;28;19924;-78
2023/09/07 06:14:38;;;;;;;;;;;;;;;;;;5117429;27;19920;-79
2023/09/07 06:17:04;;;;;;;;;;;;;;;;;;5095885;28;19930;-77
2023/09/07 06:19:30;;;;;;;;;;;;;;;;;;5119983;27;19920;-78
2023/09/07 06:21:56;;;;;;;;;;;;;;;;;;5102452;28;19930;-77
2023/09/07 06:24:22;;;;;;;;;;;;;;;;;;5094858;28;19924;-78
2023/09/07 06:26:48;;;;;;;;;;;;;;;;;;5093180;28;20031;-77
2023/09/07 06:29:14;;;;;;;;;;;;;;;;;;5105747;27;19919;-77
2023/09/07 06:31:40;;;;;;;;;;;;;;;;;;5108221;27;19969;-79
2023/09/07 06:34:06;;;;;;;;;;;;;;;;;;5099167;27;19923;-74
2023/09/07 06:36:32;;;;;;;;;;;;;;;;;;5116713;27;20391;-74
2023/09/07 06:38:58;;;;;;;;;;;;;;;;;;5116194;27;19919;-72
2023/09/07 06:41:24;;;;;;;;;;;;;;;;;;5134837;27;19946;-68
2023/09/07 06:43:50;;;;;;;;;;;;;;;;;;5133387;27;20280;-76
2023/09/07 06:46:16;;;;;;;;;;;;;;;;;;5099810;27;19919;-76
2023/09/07 06:48:42;;;;;;;;;;;;;;;;;;5065951;28;19969;-81
2023/09/07 06:51:09;;;;;;;;;;;;;;;;;;5121294;27;20011;-76
2023/09/07 06:53:35;;;;;;;;;;;;;;;;;;5112380;27;20394;-76
2023/09/07 06:56:01;;;;;;;;;;;;;;;;;;5095243;28;20014;-76
2023/09/07 06:58:27;;;;;;;;;;;;;;;;;;5094839;28;19927;-76
2023/09/07 07:00:53;;;;;;;;;;;;;;;;;;5095608;28;19926;-76
2023/09/07 07:03:19;;;;;;;;;;;;;;;;;;5112533;28;19919;-75
2023/09/07 07:05:45;;;;;;;;;;;;;;;;;;5089629;28;20333;-78
2023/09/07 07:08:11;;;;;;;;;;;;;;;;;;5083810;28;19920;-76
2023/09/07 07:10:37;;;;;;;;;;;;;;;;;;5109587;28;19920;-76
2023/09/07 07:13:03;;;;;;;;;;;;;;;;;;5090176;28;19920;-77
2023/09/07 07:15:29;;;;;;;;;;;;;;;;;;5102012;28;19964;-76
2023/09/07 07:17:55;;;;;;;;;;;;;;;;;;5098158;28;19923;-76
2023/09/07 07:20:21;;;;;;;;;;;;;;;;;;5111748;28;19920;-76
2023/09/07 07:22:47;;;;;;;;;;;;;;;;;;5095017;28;20024;-76
2023/09/07 07:25:13;;;;;;;;;;;;;;;;;;5112566;28;19920;-76
2023/09/07 07:27:39;;;;;;;;;;;;;;;;;;5103346;27;20382;-76
2023/09/07 07:30:05;;;;;;;;;;;;;;;;;;5114867;27;20359;-75
2023/09/07 07:32:31;;;;;;;;;;;;;;;;;;5093249;28;19973;-76
2023/09/07 07:34:57;;;;;;;;;;;;;;;;;;5090608;28;19919;-76
2023/09/07 07:37:24;;;;;;;;;;;;;;;;;;5075930;28;19966;-73
2023/09/07 07:39:49;;;;;;;;;;;;;;;;;;5094616;28;19920;-77
2023/09/07 07:42:15;;;;;;;;;;;;;;;;;;5094656;28;19968;-70
2023/09/07 07:44:41;;;;;;;;;;;;;;;;;;5112813;28;19923;-72
2023/09/07 07:47:07;;;;;;;;;;;;;;;;;;5094913;28;20371;-72
2023/09/07 07:49:34;;;;;;;;;;;;;;;;;;5090330;28;19978;-78
2023/09/07 07:52:00;;;;;;;;;;;;;;;;;;5079123;28;19924;-76
2023/09/07 07:54:28;;;;;;;;;;;;;;;;;;5094038;28;19968;-78
2023/09/07 07:56:54;;;;;;;;;;;;;;;;;;5085104;28;20127;-68
2023/09/07 07:59:20;;;;;;;;;;;;;;;;;;5104963;28;20403;-69
2023/09/07 08:01:46;;;;;;;;;;;;;;;;;;5106046;28;20276;-71
2023/09/07 08:04:12;;;;;;;;;;;;;;;;;;5110162;28;19988;-79
2023/09/07 08:06:38;;;;;;;;;;;;;;;;;;5118674;27;19919;-80
2023/09/07 08:09:04;;;;;;;;;;;;;;;;;;5110460;28;19920;-75
2023/09/07 08:11:30;;;;;;;;;;;;;;;;;;5089719;28;20400;-75
2023/09/07 08:13:56;;;;;;;;;;;;;;;;;;5110424;27;19920;-77
2023/09/07 08:16:22;;;;;;;;;;;;;;;;;;5087832;28;19959;-77
2023/09/07 08:18:48;;;;;;;;;;;;;;;;;;5093131;28;20263;-71
2023/09/07 08:21:13;;;;;;;;;;;;;;;;;;5087707;28;19926;-70
2023/09/07 08:23:40;;;;;;;;;;;;;;;;;;5099804;28;19965;-74
2023/09/07 08:26:06;;;;;;;;;;;;;;;;;;5099262;28;19923;-74
2023/09/07 08:28:32;;;;;;;;;;;;;;;;;;5089833;28;20003;-75
2023/09/07 08:31:00;;;;;;;;;;;;;;;;;;5093910;28;19919;-76
2023/09/07 08:33:28;;;;;;;;;;;;;;;;;;5103583;28;19927;-82
2023/09/07 08:35:55;;;;;;;;;;;;;;;;;;5110555;28;19971;-82
2023/09/07 08:38:24;;;;;;;;;;;;;;;;;;5095230;28;19966;-82
2023/09/07 08:40:51;;;;;;;;;;;;;;;;;;5094490;28;19947;-82
2023/09/07 08:43:18;;;;;;;;;;;;;;;;;;5109479;28;19923;-82
2023/09/07 08:45:44;;;;;;;;;;;;;;;;;;5088161;28;19928;-82
2023/09/07 08:48:10;;;;;;;;;;;;;;;;;;5124372;27;20403;-82
2023/09/07 08:50:38;;;;;;;;;;;;;;;;;;5110722;28;20057;-82
2023/09/07 08:53:04;;;;;;;;;;;;;;;;;;5093499;28;19920;-82
2023/09/07 08:55:30;;;;;;;;;;;;;;;;;;5094415;28;19942;-82
2023/09/07 08:57:56;;;;;;;;;;;;;;;;;;5110162;28;20353;-82
2023/09/07 09:00:23;;;;;;;;;;;;;;;;;;5093815;28;20390;-88
2023/09/07 09:02:49;;;;;;;;;;;;;;;;;;5123485;27;19965;-84
2023/09/07 09:05:15;;;;;;;;;;;;;;;;;;5108895;28;19931;-84
2023/09/07 09:07:41;;;;;;;;;;;;;;;;;;5120444;28;20322;-86
2023/09/07 09:10:07;;;;;;;;;;;;;;;;;;5100444;28;19965;-85
2023/09/07 09:12:33;;;;;;;;;;;;;;;;;;5092488;28;20609;-83
2023/09/07 09:15:00;;;;;;;;;;;;;;;;;;5107402;28;19926;-84
2023/09/07 09:17:25;;;;;;;;;;;;;;;;;;5082777;28;19935;-84
2023/09/07 09:19:51;;;;;;;;;;;;;;;;;;5078564;28;19920;-85
2023/09/07 09:22:19;;;;;;;;;;;;;;;;;;5096788;28;19915;-84
2023/09/07 09:24:45;;;;;;;;;;;;;;;;;;5111880;28;20298;-83
2023/09/07 09:27:11;;;;;;;;;;;;;;;;;;5118271;27;19928;-85
2023/09/07 09:29:37;;;;;;;;;;;;;;;;;;5089309;28;20360;-85
2023/09/07 09:32:04;;;;;;;;;;;;;;;;;;5083105;28;19920;-74
2023/09/07 09:34:30;;;;;;;;;;;;;;;;;;5082677;28;19927;-75
2023/09/07 09:36:56;;;;;;;;;;;;;;;;;;5128531;27;19920;-79
2023/09/07 09:39:22;;;;;;;;;;;;;;;;;;5085463;28;19920;-76
2023/09/07 09:41:48;;;;;;;;;;;;;;;;;;5124440;27;19988;-81
2023/09/07 09:44:14;;;;;;;;;;;;;;;;;;5115865;27;20472;-74
2023/09/07 09:46:40;;;;;;;;;;;;;;;;;;5109100;28;20015;-74
2023/09/07 09:49:06;;;;;;;;;;;;;;;;;;5110541;28;19936;-74
2023/09/07 09:51:32;;;;;;;;;;;;;;;;;;5097330;28;19920;-74
2023/09/07 09:53:58;;;;;;;;;;;;;;;;;;5096618;28;20375;-75
2023/09/07 09:56:26;;;;;;;;;;;;;;;;;;5113430;28;20311;-75
2023/09/07 09:58:52;;;;;;;;;;;;;;;;;;5083391;28;21091;-75
2023/09/07 10:01:18;;;;;;;;;;;;;;;;;;5096521;28;20453;-75
2023/09/07 10:03:45;;;;;;;;;;;;;;;;;;5096768;28;19923;-74
2023/09/07 10:06:11;;;;;;;;;;;;;;;;;;5094517;28;19920;-73
2023/09/07 10:08:37;;;;;;;;;;;;;;;;;;5112458;28;19926;-77
2023/09/07 10:11:03;;;;;;;;;;;;;;;;;;5095482;28;19970;-78
2023/09/07 10:13:29;;;;;;;;;;;;;;;;;;5078197;28;19920;-77
2023/09/07 10:15:55;;;;;;;;;;;;;;;;;;5079233;28;19927;-77
2023/09/07 10:18:21;;;;;;;;;;;;;;;;;;5092806;28;20628;-78
2023/09/07 10:20:48;;;;;;;;;;;;;;;;;;5109547;28;19927;-78
2023/09/07 10:23:14;;;;;;;;;;;;;;;;;;5092360;28;19931;-78
2023/09/07 10:25:40;;;;;;;;;;;;;;;;;;5096169;28;19927;-78
2023/09/07 10:28:06;;;;;;;;;;;;;;;;;;5121815;27;19919;-77
2023/09/07 10:30:32;;;;;;;;;;;;;;;;;;5095079;28;20015;-78
2023/09/07 10:32:58;;;;;;;;;;;;;;;;;;5106498;28;19920;-78
2023/09/07 10:35:27;;;;;;;;;;;;;;;;;;5095264;28;19923;-78
2023/09/07 10:37:53;;;;;;;;;;;;;;;;;;5103247;27;19919;-80
2023/09/07 10:40:19;;;;;;;;;;;;;;;;;;5096126;28;19926;-78
2023/09/07 10:42:45;;;;;;;;;;;;;;;;;;5080783;28;19927;-80
2023/09/07 10:45:12;;;;;;;;;;;;;;;;;;5084129;28;20408;-79
2023/09/07 10:47:38;;;;;;;;;;;;;;;;;;5110025;28;20297;-81
2023/09/07 10:50:04;;;;;;;;;;;;;;;;;;5075261;28;19924;-78
2023/09/07 10:52:30;;;;;;;;;;;;;;;;;;5075910;28;20405;-83
2023/09/07 10:54:57;;;;;;;;;;;;;;;;;;5075270;28;20269;-81
2023/09/07 10:57:23;;;;;;;;;;;;;;;;;;5091550;28;19935;-80
2023/09/07 10:59:49;;;;;;;;;;;;;;;;;;5109074;28;19920;-82
2023/09/07 11:02:15;;;;;;;;;;;;;;;;;;5109733;28;19924;-86
2023/09/07 11:04:41;;;;;;;;;;;;;;;;;;5116031;27;19926;-86
2023/09/07 11:07:07;;;;;;;;;;;;;;;;;;5074515;28;20372;-79
2023/09/07 11:09:33;;;;;;;;;;;;;;;;;;5120865;27;19927;-82
2023/09/07 11:12:02;;;;;;;;;;;;;;;;;;5092518;28;19926;-79
2023/09/07 11:14:28;;;;;;;;;;;;;;;;;;5073518;28;19920;-78
2023/09/07 11:16:55;;;;;;;;;;;;;;;;;;5107304;27;19919;-77
2023/09/07 11:19:40;;;;;;;;;;;;;;;;;;5112991;28;19920;-79
2023/09/07 11:22:09;;;;;;;;;;;;;;;;;;5090719;28;19920;-81
2023/09/07 11:24:35;;;;;;;;;;;;;;;;;;5078600;28;19969;-78
2023/09/07 11:27:02;;;;;;;;;;;;;;;;;;5077701;28;20026;-78
2023/09/07 11:29:28;;;;;;;;;;;;;;;;;;5090401;28;19982;-78
2023/09/07 11:31:54;;;;;;;;;;;;;;;;;;5092222;28;20327;-78
2023/09/07 11:34:21;;;;;;;;;;;;;;;;;;5118801;27;19920;-78
2023/09/07 11:36:46;;;;;;;;;;;;;;;;;;5081392;28;19926;-78
2023/09/07 11:39:12;;;;;;;;;;;;;;;;;;5109538;28;20302;-78
2023/09/07 11:41:38;;;;;;;;;;;;;;;;;;5077636;28;19977;-79
2023/09/07 11:44:04;;;;;;;;;;;;;;;;;;5093052;28;19938;-79
2023/09/07 11:46:30;;;;;;;;;;;;;;;;;;5111647;28;20521;-78
2023/09/07 11:48:56;;;;;;;;;;;;;;;;;;5111874;28;19978;-79
2023/09/07 11:51:22;;;;;;;;;;;;;;;;;;5094728;28;19919;-81
2023/09/07 11:53:49;;;;;;;;;;;;;;;;;;5112094;28;19926;-79
2023/09/07 11:56:15;;;;;;;;;;;;;;;;;;5094407;28;19924;-79
2023/09/07 11:58:43;;;;;;;;;;;;;;;;;;5094173;28;20436;-78
2023/09/07 12:01:09;;;;;;;;;;;;;;;;;;5111503;28;20514;-79
2023/09/07 12:03:35;;;;;;;;;;;;;;;;;;5099818;28;19999;-79
2023/09/07 12:06:01;;;;;;;;;;;;;;;;;;5098667;28;20387;-79
2023/09/07 12:08:28;;;;;;;;;;;;;;;;;;5111299;28;20359;-79
2023/09/07 12:10:54;;;;;;;;;;;;;;;;;;5112086;28;20127;-79
2023/09/07 12:13:20;;;;;;;;;;;;;;;;;;5086784;28;19977;-79
2023/09/07 12:15:46;;;;;;;;;;;;;;;;;;5074739;28;20431;-79
2023/09/07 12:18:12;;;;;;;;;;;;;;;;;;5090977;28;20010;-82
2023/09/07 12:20:38;;;;;;;;;;;;;;;;;;5090699;28;19963;-79
2023/09/07 12:23:04;;;;;;;;;;;;;;;;;;5057605;28;19920;-78
2023/09/07 12:25:32;;;;;;;;;;;;;;;;;;5070839;28;19920;-79
2023/09/07 12:27:58;;;;;;;;;;;;;;;;;;5070791;28;19920;-80
2023/09/07 12:30:24;;;;;;;;;;;;;;;;;;5053630;28;19927;-79
2023/09/07 12:32:50;;;;;;;;;;;;;;;;;;5054547;28;19924;-79
2023/09/07 12:35:16;;;;;;;;;;;;;;;;;;5105108;28;20365;-79
2023/09/07 12:37:42;;;;;;;;;;;;;;;;;;5090071;28;19942;-79
2023/09/07 12:40:11;;;;;;;;;;;;;;;;;;5091360;28;20337;-79
2023/09/07 12:42:37;;;;;;;;;;;;;;;;;;5090046;28;19920;-79
2023/09/07 12:45:04;;;;;;;;;;;;;;;;;;5070559;28;20403;-79
2023/09/07 12:47:30;;;;;;;;;;;;;;;;;;5117180;28;20424;-78
2023/09/07 12:49:56;;;;;;;;;;;;;;;;;;5087184;28;19928;-79
2023/09/07 12:52:22;;;;;;;;;;;;;;;;;;5071015;28;19920;-78
2023/09/07 12:54:48;;;;;;;;;;;;;;;;;;5074954;28;19920;-78
2023/09/07 12:57:14;;;;;;;;;;;;;;;;;;5088635;28;19924;-82
2023/09/07 12:59:40;;;;;;;;;;;;;;;;;;5078108;28;20300;-79
2023/09/07 13:02:06;;;;;;;;;;;;;;;;;;5074599;28;19920;-79
2023/09/07 13:04:32;;;;;;;;;;;;;;;;;;5070275;28;19955;-78
2023/09/07 13:06:58;;;;;;;;;;;;;;;;;;5078063;28;19923;-79
2023/09/07 13:09:24;;;;;;;;;;;;;;;;;;5094303;28;19942;-78
2023/09/07 13:11:50;;;;;;;;;;;;;;;;;;5094685;28;19920;-78
2023/09/07 13:14:16;;;;;;;;;;;;;;;;;;5090130;28;19927;-81
2023/09/07 13:16:43;;;;;;;;;;;;;;;;;;5057455;28;20380;-79
2023/09/07 13:19:10;;;;;;;;;;;;;;;;;;5073699;28;20277;-79
2023/09/07 13:21:36;;;;;;;;;;;;;;;;;;5073967;28;19978;-79
2023/09/07 13:24:02;;;;;;;;;;;;;;;;;;5093927;28;19963;-78
2023/09/07 13:26:28;;;;;;;;;;;;;;;;;;5069071;28;19927;-80
2023/09/07 13:28:53;;;;;;;;;;;;;;;;;;5073266;28;19920;-78
2023/09/07 13:31:19;;;;;;;;;;;;;;;;;;5074053;28;19920;-82
2023/09/07 13:33:45;;;;;;;;;;;;;;;;;;5057590;28;19968;-78
2023/09/07 13:36:11;;;;;;;;;;;;;;;;;;5073843;28;19971;-78
2023/09/07 13:38:37;;;;;;;;;;;;;;;;;;5073366;28;19920;-78
2023/09/07 13:41:03;;;;;;;;;;;;;;;;;;5074132;28;19921;-79
2023/09/07 13:43:29;;;;;;;;;;;;;;;;;;5066991;28;20408;-78
2023/09/07 13:45:55;;;;;;;;;;;;;;;;;;5094501;28;20547;-78
2023/09/07 13:48:21;;;;;;;;;;;;;;;;;;5093878;28;19920;-81
2023/09/07 13:50:48;;;;;;;;;;;;;;;;;;5091002;28;19923;-78
2023/09/07 13:53:14;;;;;;;;;;;;;;;;;;5055680;28;19920;-78
2023/09/07 13:55:42;;;;;;;;;;;;;;;;;;5071603;28;19924;-79
2023/09/07 13:58:07;;;;;;;;;;;;;;;;;;5091858;28;19927;-79
2023/09/07 14:00:33;;;;;;;;;;;;;;;;;;5074968;28;19920;-78
2023/09/07 14:02:59;;;;;;;;;;;;;;;;;;5075283;28;20009;-79
2023/09/07 14:05:25;;;;;;;;;;;;;;;;;;5072763;28;19924;-78
2023/09/07 14:07:51;;;;;;;;;;;;;;;;;;5103234;28;20489;-78
2023/09/07 14:10:17;;;;;;;;;;;;;;;;;;5071382;28;19927;-78
2023/09/07 14:12:44;;;;;;;;;;;;;;;;;;5090687;28;19922;-78
2023/09/07 14:15:10;;;;;;;;;;;;;;;;;;5082710;28;19919;-78
2023/09/07 14:17:36;;;;;;;;;;;;;;;;;;5079766;28;19920;-77
2023/09/07 14:20:01;;;;;;;;;;;;;;;;;;5079487;28;19970;-78
2023/09/07 14:22:27;;;;;;;;;;;;;;;;;;5079191;28;19919;-78
2023/09/07 14:24:53;;;;;;;;;;;;;;;;;;5093109;28;20364;-80
2023/09/07 14:27:19;;;;;;;;;;;;;;;;;;5092974;28;20311;-78
2023/09/07 14:29:45;;;;;;;;;;;;;;;;;;5100243;28;19977;-78
2023/09/07 14:32:11;;;;;;;;;;;;;;;;;;5104963;28;19971;-77
2023/09/07 14:34:37;;;;;;;;;;;;;;;;;;5106124;28;19927;-78
2023/09/07 14:37:03;;;;;;;;;;;;;;;;;;5093441;28;19920;-78
2023/09/07 14:39:29;;;;;;;;;;;;;;;;;;5097806;28;19923;-79
2023/09/07 14:41:55;;;;;;;;;;;;;;;;;;5093521;28;19924;-79
2023/09/07 14:44:21;;;;;;;;;;;;;;;;;;5108083;28;19920;-79
2023/09/07 14:46:49;;;;;;;;;;;;;;;;;;5079827;28;19920;-79
2023/09/07 14:49:15;;;;;;;;;;;;;;;;;;5096400;28;19931;-78
2023/09/07 14:51:41;;;;;;;;;;;;;;;;;;5087236;28;19974;-77
2023/09/07 14:54:07;;;;;;;;;;;;;;;;;;5093828;28;20365;-78
2023/09/07 14:56:35;;;;;;;;;;;;;;;;;;5079885;28;19924;-79
2023/09/07 14:59:01;;;;;;;;;;;;;;;;;;5100155;28;20361;-79
2023/09/07 15:01:27;;;;;;;;;;;;;;;;;;5103193;28;19963;-82
2023/09/07 15:03:53;;;;;;;;;;;;;;;;;;5110409;27;20035;-81
2023/09/07 15:06:19;;;;;;;;;;;;;;;;;;5088882;28;19919;-79
2023/09/07 15:08:45;;;;;;;;;;;;;;;;;;5095033;28;19967;-79
2023/09/07 15:11:12;;;;;;;;;;;;;;;;;;5090854;28;19919;-79
2023/09/07 15:13:39;;;;;;;;;;;;;;;;;;5083872;28;20008;-79
2023/09/07 15:16:05;;;;;;;;;;;;;;;;;;5074256;28;19923;-79
2023/09/07 15:18:31;;;;;;;;;;;;;;;;;;5093429;28;20348;-79
2023/09/07 15:20:57;;;;;;;;;;;;;;;;;;5082768;28;19989;-79
2023/09/07 15:23:23;;;;;;;;;;;;;;;;;;5102274;27;19920;-79
2023/09/07 15:25:49;;;;;;;;;;;;;;;;;;5087549;28;20211;-80
2023/09/07 15:28:15;;;;;;;;;;;;;;;;;;5105320;28;20456;-78
2023/09/07 15:30:41;;;;;;;;;;;;;;;;;;5076862;28;19927;-78
2023/09/07 15:33:07;;;;;;;;;;;;;;;;;;5109430;28;19958;-80
2023/09/07 15:35:33;;;;;;;;;;;;;;;;;;5102408;28;19919;-80
2023/09/07 15:37:59;;;;;;;;;;;;;;;;;;5105870;28;20583;-80
2023/09/07 15:40:25;;;;;;;;;;;;;;;;;;5112267;28;19951;-78
2023/09/07 15:42:51;;;;;;;;;;;;;;;;;;5093172;28;19920;-79
2023/09/07 15:45:17;;;;;;;;;;;;;;;;;;5108417;28;19920;-79
2023/09/07 15:47:43;;;;;;;;;;;;;;;;;;5111476;28;20272;-79
2023/09/07 15:50:09;;;;;;;;;;;;;;;;;;5093985;28;19923;-79
2023/09/07 15:52:35;;;;;;;;;;;;;;;;;;5093634;28;20088;-78
2023/09/07 15:58:05;;;;;;;;;;;;;;;;;;5106204;28;20333;-78
2023/09/07 16:00:56;;;;;;;;;;;;;;;;;;5073189;28;19920;-78
2023/09/07 16:03:22;;;;;;;;;;;;;;;;;;5110483;28;19927;-79
2023/09/07 16:05:48;;;;;;;;;;;;;;;;;;5110206;28;19924;-78
2023/09/07 16:08:14;;;;;;;;;;;;;;;;;;5110890;28;19984;-79
2023/09/07 16:10:40;;;;;;;;;;;;;;;;;;5094237;28;20508;-77
2023/09/07 16:13:06;;;;;;;;;;;;;;;;;;5104121;28;19927;-78
2023/09/07 16:15:32;;;;;;;;;;;;;;;;;;5100657;28;19919;-78